createdAt,value
2017-01-15T00:00:16.942Z,79.33
2017-01-15T00:00:45.127Z,79.37
2017-01-15T00:01:13.320Z,79.62
2017-01-15T00:01:41.575Z,79.82
2017-01-15T00:02:09.766Z,79.72
2017-01-15T00:02:37.998Z,80.11
2017-01-15T00:03:06.167Z,79.91
2017-01-15T00:03:34.360Z,80.4
2017-01-15T00:04:02.540Z,80.3
2017-01-15T00:04:30.735Z,79.91
2017-01-15T00:04:59.020Z,80.79
2017-01-15T00:05:27.287Z,80.59
2017-01-15T00:05:55.574Z,81.27
2017-01-15T00:06:23.831Z,80.98
2017-01-15T00:06:52.001Z,81.17
2017-01-15T00:07:20.186Z,80.98
2017-01-15T00:07:48.446Z,80.79
2017-01-15T00:08:16.617Z,81.17
2017-01-15T00:08:44.812Z,80.88
2017-01-15T00:09:12.969Z,80.88
2017-01-15T00:09:41.167Z,80.88
2017-01-15T00:10:09.415Z,81.07
2017-01-15T00:10:37.592Z,81.07
2017-01-15T00:11:05.852Z,81.27
2017-01-15T00:11:34.025Z,81.07
2017-01-15T00:12:02.300Z,81.56
2017-01-15T00:12:30.501Z,81.46
2017-01-15T00:12:58.671Z,81.75
2017-01-15T00:13:26.843Z,81.85
2017-01-15T00:13:55.054Z,81.75
2017-01-15T00:14:23.224Z,81.75
2017-01-15T00:14:51.485Z,81.85
2017-01-15T00:15:19.657Z,81.65
2017-01-15T00:15:47.825Z,81.65
2017-01-15T00:16:16.001Z,81.46
2017-01-15T00:16:44.153Z,81.75
2017-01-15T00:17:12.334Z,81.85
2017-01-15T00:17:40.510Z,82.14
2017-01-15T00:18:08.691Z,81.95
2017-01-15T00:18:36.949Z,81.95
2017-01-15T00:19:05.209Z,82.53
2017-01-15T00:19:33.398Z,82.53
2017-01-15T00:20:01.648Z,82.14
2017-01-15T00:20:29.813Z,82.43
2017-01-15T00:20:58.118Z,82.33
2017-01-15T00:21:26.317Z,82.33
2017-01-15T00:21:54.514Z,82.33
2017-01-15T00:22:22.675Z,82.14
2017-01-15T00:22:50.862Z,82.04
2017-01-15T00:23:19.129Z,82.53
2017-01-15T00:23:47.308Z,82.43
2017-01-15T00:24:15.500Z,82.14
2017-01-15T00:24:43.689Z,82.33
2017-01-15T00:25:11.858Z,82.23
2017-01-15T00:25:40.073Z,82.23
2017-01-15T00:26:08.221Z,82.14
2017-01-15T00:26:36.383Z,82.14
2017-01-15T00:27:04.579Z,82.33
2017-01-15T00:27:32.735Z,82.23
2017-01-15T00:28:00.994Z,82.14
2017-01-15T00:28:29.265Z,82.23
2017-01-15T00:28:57.440Z,82.53
2017-01-15T00:29:25.708Z,82.72
2017-01-15T00:29:53.890Z,82.48
2017-01-15T00:30:22.080Z,82
2017-01-15T00:30:50.256Z,82
2017-01-15T00:31:18.405Z,81.71
2017-01-15T00:31:46.587Z,82.58
2017-01-15T00:32:14.830Z,82.48
2017-01-15T00:32:42.999Z,82.39
2017-01-15T00:33:11.164Z,82.2
2017-01-15T00:33:39.326Z,82.2
2017-01-15T00:34:07.496Z,82.39
2017-01-15T00:34:35.667Z,81.52
2017-01-15T00:35:03.808Z,81.81
2017-01-15T00:35:31.978Z,81.9
2017-01-15T00:36:00.139Z,81.57
2017-01-15T00:36:28.311Z,81.71
2017-01-15T00:36:56.494Z,81.71
2017-01-15T00:37:24.713Z,82.1
2017-01-15T00:37:52.888Z,82.35
2017-01-15T00:38:21.046Z,82.25
2017-01-15T00:38:49.319Z,83.12
2017-01-15T00:39:17.491Z,82.83
2017-01-15T00:39:45.846Z,82.83
2017-01-15T00:40:14.003Z,82.64
2017-01-15T00:40:42.152Z,82.73
2017-01-15T00:41:10.316Z,82.93
2017-01-15T00:41:38.506Z,82.93
2017-01-15T00:42:06.694Z,82.93
2017-01-15T00:42:34.880Z,83.12
2017-01-15T00:43:03.052Z,82.83
2017-01-15T00:43:31.241Z,82.78
2017-01-15T00:43:59.390Z,82.97
2017-01-15T00:44:27.601Z,82.87
2017-01-15T00:44:55.783Z,82.68
2017-01-15T00:45:24.034Z,82.83
2017-01-15T00:45:52.209Z,83.03
2017-01-15T00:46:20.384Z,82.93
2017-01-15T00:46:48.574Z,82.83
2017-01-15T00:47:16.765Z,82.64
2017-01-15T00:47:44.991Z,82.73
2017-01-15T00:48:13.159Z,83.22
2017-01-15T00:48:41.315Z,83.12
2017-01-15T00:49:09.478Z,82.83
2017-01-15T00:49:37.717Z,83.03
2017-01-15T00:50:05.931Z,82.73
2017-01-15T00:50:34.109Z,83.51
2017-01-15T00:51:02.283Z,82.73
2017-01-15T00:51:30.476Z,83.7
2017-01-15T00:51:58.691Z,83.31
2017-01-15T00:52:26.886Z,83.41
2017-01-15T00:52:55.068Z,83.61
2017-01-15T00:53:23.223Z,83.61
2017-01-15T00:53:51.391Z,83.31
2017-01-15T00:54:19.539Z,84.09
2017-01-15T00:54:47.698Z,84.19
2017-01-15T00:55:15.841Z,83.89
2017-01-15T00:55:44.001Z,83.41
2017-01-15T00:56:12.179Z,83.51
2017-01-15T00:56:40.367Z,83.51
2017-01-15T00:57:08.627Z,83.12
2017-01-15T00:57:36.809Z,83.89
2017-01-15T00:58:04.940Z,83.03
2017-01-15T00:58:33.114Z,83.03
2017-01-15T00:59:01.309Z,83.03
2017-01-15T00:59:29.473Z,82.83
2017-01-15T00:59:57.651Z,83.31
2017-01-15T01:00:25.916Z,83.61
2017-01-15T01:00:54.082Z,83.31
2017-01-15T01:01:22.322Z,83.31
2017-01-15T01:01:50.471Z,83.61
2017-01-15T01:02:18.664Z,83.61
2017-01-15T01:02:46.818Z,83.31
2017-01-15T01:03:15.065Z,83.41
2017-01-15T01:03:43.206Z,83.99
2017-01-15T01:04:11.365Z,83.99
2017-01-15T01:04:39.671Z,84.28
2017-01-15T01:05:07.850Z,83.22
2017-01-15T01:05:36.012Z,84.09
2017-01-15T01:06:04.360Z,83.99
2017-01-15T01:06:32.518Z,83.89
2017-01-15T01:07:00.667Z,83.89
2017-01-15T01:07:29.030Z,83.89
2017-01-15T01:07:57.317Z,84.38
2017-01-15T01:08:25.490Z,84.53
2017-01-15T01:08:53.672Z,84.47
2017-01-15T01:09:21.847Z,84.47
2017-01-15T01:09:50.019Z,84.53
2017-01-15T01:10:18.232Z,84.72
2017-01-15T01:10:46.403Z,84.24
2017-01-15T01:11:14.595Z,83.89
2017-01-15T01:11:42.890Z,84.63
2017-01-15T01:12:11.138Z,84.63
2017-01-15T01:12:39.329Z,84.09
2017-01-15T01:13:07.493Z,84.05
2017-01-15T01:13:35.654Z,84.33
2017-01-15T01:14:03.813Z,84.63
2017-01-15T01:14:31.964Z,84.53
2017-01-15T01:15:00.127Z,84.63
2017-01-15T01:15:28.301Z,84.91
2017-01-15T01:15:56.519Z,84.95
2017-01-15T01:16:24.687Z,84.63
2017-01-15T01:16:52.972Z,84.43
2017-01-15T01:17:21.132Z,84.72
2017-01-15T01:17:49.286Z,84.72
2017-01-15T01:18:17.552Z,84.82
2017-01-15T01:18:45.709Z,84.82
2017-01-15T01:19:13.888Z,85.21
2017-01-15T01:19:42.081Z,85.49
2017-01-15T01:20:10.344Z,85.21
2017-01-15T01:20:38.628Z,84.91
2017-01-15T01:21:06.801Z,85.21
2017-01-15T01:21:35.049Z,85.4
2017-01-15T01:22:03.223Z,85.21
2017-01-15T01:22:31.416Z,85.21
2017-01-15T01:22:59.582Z,84.91
2017-01-15T01:23:27.847Z,85.3
2017-01-15T01:23:56.032Z,85.3
2017-01-15T01:24:24.193Z,85.3
2017-01-15T01:24:52.364Z,85.01
2017-01-15T01:25:20.538Z,85.21
2017-01-15T01:25:48.718Z,85.49
2017-01-15T01:26:16.978Z,84.91
2017-01-15T01:26:45.146Z,85.4
2017-01-15T01:27:13.296Z,85.01
2017-01-15T01:27:41.472Z,85.01
2017-01-15T01:28:09.622Z,85.3
2017-01-15T01:28:37.812Z,85.3
2017-01-15T01:29:05.973Z,85.4
2017-01-15T01:29:34.130Z,85.4
2017-01-15T01:30:02.333Z,85.4
2017-01-15T01:30:30.517Z,85.21
2017-01-15T01:30:58.720Z,85.01
2017-01-15T01:31:26.895Z,85.21
2017-01-15T01:31:55.073Z,85.49
2017-01-15T01:32:23.303Z,85.21
2017-01-15T01:32:51.499Z,85.3
2017-01-15T01:33:19.669Z,85.21
2017-01-15T01:33:47.885Z,85.21
2017-01-15T01:34:16.058Z,85.3
2017-01-15T01:34:44.235Z,84.91
2017-01-15T01:35:12.530Z,85.59
2017-01-15T01:35:40.700Z,85.49
2017-01-15T01:36:08.871Z,85.4
2017-01-15T01:36:37.051Z,85.4
2017-01-15T01:37:05.236Z,85.49
2017-01-15T01:37:33.526Z,85.4
2017-01-15T01:38:01.724Z,85.59
2017-01-15T01:38:29.917Z,85.59
2017-01-15T01:38:58.118Z,85.21
2017-01-15T01:39:26.274Z,85.21
2017-01-15T01:39:54.451Z,85.21
2017-01-15T01:40:22.636Z,85.3
2017-01-15T01:40:50.795Z,85.3
2017-01-15T01:41:18.979Z,85.3
2017-01-15T01:41:47.157Z,85.4
2017-01-15T01:42:15.301Z,85.21
2017-01-15T01:42:43.485Z,85.21
2017-01-15T01:43:11.760Z,84.91
2017-01-15T01:43:39.954Z,84.43
2017-01-15T01:44:08.136Z,84.33
2017-01-15T01:44:36.318Z,84.72
2017-01-15T01:45:04.565Z,84.91
2017-01-15T01:45:32.736Z,84.72
2017-01-15T01:46:00.987Z,84.72
2017-01-15T01:46:29.285Z,84.63
2017-01-15T01:46:57.451Z,84.82
2017-01-15T01:47:25.648Z,84.53
2017-01-15T01:47:53.826Z,84.72
2017-01-15T01:48:22.094Z,84.63
2017-01-15T01:48:50.333Z,84.91
2017-01-15T01:49:18.509Z,84.53
2017-01-15T01:49:46.757Z,84.63
2017-01-15T01:50:14.999Z,84.14
2017-01-15T01:50:43.159Z,84.33
2017-01-15T01:51:11.323Z,84.43
2017-01-15T01:51:39.475Z,84.43
2017-01-15T01:52:07.734Z,84.63
2017-01-15T01:52:35.898Z,84.72
2017-01-15T01:53:04.067Z,84.91
2017-01-15T01:53:32.344Z,84.53
2017-01-15T01:54:00.526Z,84.63
2017-01-15T01:54:28.772Z,84.43
2017-01-15T01:54:56.955Z,84.53
2017-01-15T01:55:25.117Z,84.63
2017-01-15T01:55:53.383Z,84.53
2017-01-15T01:56:21.650Z,84.43
2017-01-15T01:56:49.827Z,84.14
2017-01-15T01:57:17.981Z,83.85
2017-01-15T01:57:46.172Z,84.63
2017-01-15T01:58:14.349Z,84.33
2017-01-15T01:58:42.523Z,84.82
2017-01-15T01:59:10.681Z,84.82
2017-01-15T01:59:38.945Z,84.72
2017-01-15T02:00:07.143Z,83.95
2017-01-15T02:00:35.405Z,84.63
2017-01-15T02:01:03.603Z,84.43
2017-01-15T02:01:31.796Z,84.53
2017-01-15T02:01:59.960Z,83.85
2017-01-15T02:02:28.258Z,84.43
2017-01-15T02:02:56.453Z,84.53
2017-01-15T02:03:24.605Z,84.53
2017-01-15T02:03:52.872Z,84.91
2017-01-15T02:04:22.183Z,84.43
2017-01-15T02:04:50.353Z,84.43
2017-01-15T02:05:18.527Z,84.14
2017-01-15T02:05:46.694Z,83.95
2017-01-15T02:06:14.934Z,84.43
2017-01-15T02:06:43.135Z,84.43
2017-01-15T02:07:11.296Z,84.53
2017-01-15T02:07:39.449Z,84.33
2017-01-15T02:08:07.629Z,83.75
2017-01-15T02:08:35.778Z,84.05
2017-01-15T02:09:03.914Z,84.24
2017-01-15T02:09:32.086Z,83.75
2017-01-15T02:10:00.275Z,84.14
2017-01-15T02:10:28.451Z,83.95
2017-01-15T02:10:56.697Z,83.95
2017-01-15T02:11:24.970Z,84.05
2017-01-15T02:11:53.131Z,84.33
2017-01-15T02:12:21.409Z,84.05
2017-01-15T02:12:49.608Z,83.85
2017-01-15T02:13:17.904Z,84.05
2017-01-15T02:13:46.079Z,84.05
2017-01-15T02:14:14.267Z,84.05
2017-01-15T02:14:42.438Z,84.14
2017-01-15T02:15:10.635Z,84.53
2017-01-15T02:15:38.831Z,84.24
2017-01-15T02:16:06.989Z,83.95
2017-01-15T02:16:35.163Z,84.05
2017-01-15T02:17:03.323Z,84.43
2017-01-15T02:17:31.466Z,84.14
2017-01-15T02:17:59.643Z,84.24
2017-01-15T02:18:27.826Z,84.24
2017-01-15T02:18:55.993Z,84.24
2017-01-15T02:19:24.145Z,83.66
2017-01-15T02:19:52.328Z,84.14
2017-01-15T02:20:20.600Z,84.14
2017-01-15T02:20:48.783Z,84.58
2017-01-15T02:21:16.959Z,84.72
2017-01-15T02:21:45.152Z,84.14
2017-01-15T02:22:13.339Z,84.72
2017-01-15T02:22:41.508Z,84.33
2017-01-15T02:23:09.686Z,84.63
2017-01-15T02:23:37.850Z,84.53
2017-01-15T02:24:06.010Z,84.43
2017-01-15T02:24:34.210Z,84.53
2017-01-15T02:25:02.379Z,84.63
2017-01-15T02:25:30.662Z,84.24
2017-01-15T02:25:58.843Z,84.63
2017-01-15T02:26:27.089Z,84.82
2017-01-15T02:26:55.270Z,84.43
2017-01-15T02:27:23.426Z,84.43
2017-01-15T02:27:51.623Z,84.33
2017-01-15T02:28:19.802Z,84.14
2017-01-15T02:28:47.981Z,84.63
2017-01-15T02:29:16.152Z,84.24
2017-01-15T02:29:44.443Z,84.43
2017-01-15T02:30:12.607Z,84.43
2017-01-15T02:30:40.773Z,84.14
2017-01-15T02:31:08.958Z,84.24
2017-01-15T02:31:37.168Z,84.78
2017-01-15T02:32:05.474Z,84.53
2017-01-15T02:32:33.668Z,84.63
2017-01-15T02:33:01.919Z,85.26
2017-01-15T02:33:30.082Z,85.26
2017-01-15T02:33:58.245Z,85.06
2017-01-15T02:34:26.436Z,85.16
2017-01-15T02:34:54.808Z,85.26
2017-01-15T02:35:22.976Z,85.55
2017-01-15T02:35:51.265Z,85.26
2017-01-15T02:36:19.553Z,85.26
2017-01-15T02:36:47.805Z,85.36
2017-01-15T02:37:15.990Z,85.36
2017-01-15T02:37:44.131Z,85.16
2017-01-15T02:38:12.490Z,85.26
2017-01-15T02:38:40.666Z,85.36
2017-01-15T02:39:08.880Z,85.36
2017-01-15T02:39:37.033Z,85.36
2017-01-15T02:40:05.229Z,85.45
2017-01-15T02:40:33.414Z,85.94
2017-01-15T02:41:01.603Z,85.74
2017-01-15T02:41:29.867Z,85.55
2017-01-15T02:41:58.040Z,85.55
2017-01-15T02:42:26.222Z,85.64
2017-01-15T02:42:54.483Z,85.26
2017-01-15T02:43:22.650Z,85.64
2017-01-15T02:43:50.814Z,85.45
2017-01-15T02:44:19.101Z,85.26
2017-01-15T02:44:47.261Z,85.16
2017-01-15T02:45:15.447Z,85.26
2017-01-15T02:45:43.613Z,85.4
2017-01-15T02:46:11.885Z,85.55
2017-01-15T02:46:40.059Z,85.06
2017-01-15T02:47:08.226Z,85.16
2017-01-15T02:47:36.397Z,85.4
2017-01-15T02:48:04.568Z,85.3
2017-01-15T02:48:32.724Z,85.06
2017-01-15T02:49:00.875Z,85.01
2017-01-15T02:49:29.016Z,85.21
2017-01-15T02:49:57.187Z,85.21
2017-01-15T02:50:25.351Z,85.4
2017-01-15T02:50:53.539Z,85.49
2017-01-15T02:51:21.792Z,85.21
2017-01-15T02:51:50.369Z,85.01
2017-01-15T02:52:19.221Z,85.06
2017-01-15T02:52:48.638Z,85.21
2017-01-15T02:53:17.730Z,85.3
2017-01-15T02:53:45.977Z,85.11
2017-01-15T02:54:14.233Z,85.59
2017-01-15T02:54:42.375Z,85.74
2017-01-15T02:55:10.573Z,85.59
2017-01-15T02:55:38.726Z,85.94
2017-01-15T02:56:06.906Z,85.74
2017-01-15T02:56:35.066Z,85.74
2017-01-15T02:57:03.315Z,85.64
2017-01-15T02:57:31.459Z,85.74
2017-01-15T02:57:59.635Z,86.32
2017-01-15T02:58:27.815Z,86.32
2017-01-15T02:58:55.993Z,86.22
2017-01-15T02:59:24.270Z,86.32
2017-01-15T02:59:52.478Z,86.32
2017-01-15T03:00:20.648Z,86.03
2017-01-15T03:00:48.954Z,86.42
2017-01-15T03:01:17.234Z,85.94
2017-01-15T03:01:45.395Z,86.13
2017-01-15T03:02:13.560Z,85.94
2017-01-15T03:02:41.747Z,86.52
2017-01-15T03:03:09.926Z,86.03
2017-01-15T03:03:38.094Z,86.22
2017-01-15T03:04:06.239Z,86.42
2017-01-15T03:04:34.422Z,86.42
2017-01-15T03:05:02.590Z,86.13
2017-01-15T03:05:30.756Z,86.13
2017-01-15T03:05:58.932Z,87.09
2017-01-15T03:06:27.071Z,86.42
2017-01-15T03:06:55.272Z,86.71
2017-01-15T03:07:23.430Z,86.61
2017-01-15T03:07:51.583Z,86.61
2017-01-15T03:08:19.821Z,86.52
2017-01-15T03:08:48.028Z,86.42
2017-01-15T03:09:16.189Z,86.71
2017-01-15T03:09:44.361Z,86.61
2017-01-15T03:10:12.626Z,86.22
2017-01-15T03:10:40.805Z,86.42
2017-01-15T03:11:08.990Z,86.52
2017-01-15T03:11:37.165Z,86.32
2017-01-15T03:12:05.403Z,86.22
2017-01-15T03:12:33.572Z,86.61
2017-01-15T03:13:01.733Z,86.52
2017-01-15T03:13:29.910Z,86.32
2017-01-15T03:13:58.114Z,86.8
2017-01-15T03:14:26.286Z,86.52
2017-01-15T03:14:54.468Z,86.71
2017-01-15T03:15:22.644Z,87
2017-01-15T03:15:50.794Z,87.38
2017-01-15T03:16:19.064Z,87.29
2017-01-15T03:16:47.210Z,87.48
2017-01-15T03:17:15.411Z,87.48
2017-01-15T03:17:43.573Z,87.09
2017-01-15T03:18:11.852Z,87.48
2017-01-15T03:18:40.018Z,87.48
2017-01-15T03:19:08.210Z,87.29
2017-01-15T03:19:36.400Z,87.19
2017-01-15T03:20:04.618Z,87.48
2017-01-15T03:20:32.782Z,87.29
2017-01-15T03:21:00.931Z,87.38
2017-01-15T03:21:29.115Z,86.9
2017-01-15T03:21:57.285Z,87.19
2017-01-15T03:22:25.456Z,87.29
2017-01-15T03:22:53.607Z,87.58
2017-01-15T03:23:21.772Z,87.77
2017-01-15T03:23:49.947Z,88.06
2017-01-15T03:24:18.105Z,87.77
2017-01-15T03:24:46.286Z,87.87
2017-01-15T03:25:14.565Z,87.87
2017-01-15T03:25:42.784Z,87.77
2017-01-15T03:26:10.984Z,87.73
2017-01-15T03:26:39.188Z,87.67
2017-01-15T03:27:07.371Z,87.77
2017-01-15T03:27:35.573Z,88.15
2017-01-15T03:28:03.749Z,87.96
2017-01-15T03:28:31.905Z,88.11
2017-01-15T03:29:00.078Z,88.02
2017-01-15T03:29:28.250Z,88.54
2017-01-15T03:29:56.430Z,88.5
2017-01-15T03:30:24.601Z,88.21
2017-01-15T03:30:52.780Z,88.35
2017-01-15T03:31:21.137Z,88.35
2017-01-15T03:31:49.302Z,88.5
2017-01-15T03:32:17.472Z,88.11
2017-01-15T03:32:45.665Z,88.11
2017-01-15T03:33:13.850Z,88.11
2017-01-15T03:33:42.044Z,88.11
2017-01-15T03:34:10.410Z,88.25
2017-01-15T03:34:38.611Z,88.64
2017-01-15T03:35:06.789Z,88.25
2017-01-15T03:35:34.952Z,88.54
2017-01-15T03:36:03.359Z,88.45
2017-01-15T03:36:31.570Z,88.64
2017-01-15T03:36:59.740Z,88.69
2017-01-15T03:37:27.906Z,88.31
2017-01-15T03:37:56.075Z,88.5
2017-01-15T03:38:24.234Z,88.98
2017-01-15T03:38:52.400Z,88.79
2017-01-15T03:39:20.607Z,89.07
2017-01-15T03:39:48.788Z,88.89
2017-01-15T03:40:16.977Z,88.98
2017-01-15T03:40:45.139Z,88.98
2017-01-15T03:41:13.480Z,88.79
2017-01-15T03:41:41.670Z,89.27
2017-01-15T03:42:09.840Z,89.27
2017-01-15T03:42:38.090Z,88.98
2017-01-15T03:43:06.251Z,88.98
2017-01-15T03:43:34.444Z,89.37
2017-01-15T03:44:02.618Z,89.75
2017-01-15T03:44:30.794Z,89.85
2017-01-15T03:44:58.958Z,89.07
2017-01-15T03:45:27.132Z,89.85
2017-01-15T03:45:55.321Z,89.27
2017-01-15T03:46:23.515Z,89.27
2017-01-15T03:46:51.677Z,89.47
2017-01-15T03:47:19.934Z,89.27
2017-01-15T03:47:48.085Z,89.17
2017-01-15T03:48:16.282Z,88.98
2017-01-15T03:48:44.468Z,88.83
2017-01-15T03:49:12.648Z,88.79
2017-01-15T03:49:40.823Z,88.89
2017-01-15T03:50:08.973Z,88.98
2017-01-15T03:50:37.182Z,89.41
2017-01-15T03:51:05.347Z,89.07
2017-01-15T03:51:33.619Z,88.98
2017-01-15T03:52:01.844Z,88.98
2017-01-15T03:52:30.051Z,88.98
2017-01-15T03:52:58.233Z,89.17
2017-01-15T03:53:26.388Z,89.17
2017-01-15T03:53:54.576Z,89.17
2017-01-15T03:54:22.753Z,88.98
2017-01-15T03:54:50.936Z,88.83
2017-01-15T03:55:19.081Z,88.93
2017-01-15T03:55:47.251Z,89.22
2017-01-15T03:56:15.493Z,89.22
2017-01-15T03:56:43.653Z,89.03
2017-01-15T03:57:11.837Z,88.83
2017-01-15T03:57:39.994Z,88.54
2017-01-15T03:58:08.158Z,88.54
2017-01-15T03:58:36.307Z,88.15
2017-01-15T03:59:04.481Z,88.73
2017-01-15T03:59:32.632Z,88.54
2017-01-15T04:00:00.902Z,87.96
2017-01-15T04:00:29.175Z,88.45
2017-01-15T04:00:57.367Z,88.06
2017-01-15T04:01:25.535Z,88.25
2017-01-15T04:01:53.695Z,88.25
2017-01-15T04:02:21.872Z,88.35
2017-01-15T04:02:50.117Z,88.35
2017-01-15T04:03:18.314Z,88.54
2017-01-15T04:03:46.504Z,88.06
2017-01-15T04:04:14.674Z,87.77
2017-01-15T04:04:42.879Z,88.06
2017-01-15T04:05:11.056Z,88.15
2017-01-15T04:05:39.243Z,88.15
2017-01-15T04:06:07.437Z,88.35
2017-01-15T04:06:35.583Z,87.67
2017-01-15T04:07:03.759Z,87.58
2017-01-15T04:07:31.929Z,87.87
2017-01-15T04:08:00.080Z,87.87
2017-01-15T04:08:28.264Z,87.87
2017-01-15T04:08:56.436Z,87.77
2017-01-15T04:09:24.607Z,87.77
2017-01-15T04:09:52.859Z,87.87
2017-01-15T04:10:21.001Z,87.96
2017-01-15T04:10:49.248Z,87.67
2017-01-15T04:11:17.446Z,87.96
2017-01-15T04:11:45.598Z,87.77
2017-01-15T04:12:13.747Z,87.77
2017-01-15T04:12:41.918Z,87.77
2017-01-15T04:13:10.092Z,87.87
2017-01-15T04:13:38.306Z,87.48
2017-01-15T04:14:06.470Z,87.67
2017-01-15T04:14:34.621Z,87.58
2017-01-15T04:15:02.803Z,87
2017-01-15T04:15:30.995Z,87.48
2017-01-15T04:16:00.966Z,87.77
2017-01-15T04:16:29.181Z,87.77
2017-01-15T04:16:57.381Z,87.67
2017-01-15T04:17:25.747Z,87.29
2017-01-15T04:17:54.046Z,87.87
2017-01-15T04:18:22.229Z,87.96
2017-01-15T04:18:50.403Z,87.77
2017-01-15T04:19:18.681Z,87.87
2017-01-15T04:19:46.842Z,87.77
2017-01-15T04:20:15.009Z,87.19
2017-01-15T04:20:43.150Z,87.67
2017-01-15T04:21:11.308Z,87.67
2017-01-15T04:21:39.468Z,87.87
2017-01-15T04:22:07.649Z,87.87
2017-01-15T04:22:35.827Z,87.96
2017-01-15T04:23:04.007Z,87.67
2017-01-15T04:23:32.185Z,87.67
2017-01-15T04:24:00.359Z,87.87
2017-01-15T04:24:28.523Z,87.87
2017-01-15T04:24:56.690Z,87.96
2017-01-15T04:25:24.882Z,87.87
2017-01-15T04:25:53.064Z,87.96
2017-01-15T04:26:21.234Z,87.77
2017-01-15T04:26:49.408Z,87.58
2017-01-15T04:27:17.589Z,88.15
2017-01-15T04:27:45.768Z,88.25
2017-01-15T04:28:14.025Z,88.15
2017-01-15T04:28:42.189Z,88.15
2017-01-15T04:29:10.375Z,88.15
2017-01-15T04:29:38.525Z,87.96
2017-01-15T04:30:06.792Z,88.54
2017-01-15T04:30:34.963Z,88.25
2017-01-15T04:31:03.144Z,88.06
2017-01-15T04:31:31.340Z,88.64
2017-01-15T04:31:59.665Z,88.73
2017-01-15T04:32:27.836Z,89.17
2017-01-15T04:32:56.075Z,89.03
2017-01-15T04:33:24.220Z,88.93
2017-01-15T04:33:52.402Z,89.07
2017-01-15T04:34:20.583Z,89.37
2017-01-15T04:34:48.754Z,88.98
2017-01-15T04:35:16.932Z,89.07
2017-01-15T04:35:45.168Z,89.07
2017-01-15T04:36:13.342Z,89.07
2017-01-15T04:36:41.519Z,89.17
2017-01-15T04:37:09.666Z,89.07
2017-01-15T04:37:41.398Z,89.65
2017-01-15T04:38:09.545Z,89.85
2017-01-15T04:38:37.696Z,89.65
2017-01-15T04:39:05.865Z,89.47
2017-01-15T04:39:34.075Z,89.37
2017-01-15T04:40:02.233Z,89.37
2017-01-15T04:40:30.434Z,89.65
2017-01-15T04:40:58.631Z,90.05
2017-01-15T04:41:26.790Z,89.85
2017-01-15T04:41:54.985Z,90.23
2017-01-15T04:42:23.174Z,90.23
2017-01-15T04:42:51.328Z,89.85
2017-01-15T04:43:19.518Z,90.33
2017-01-15T04:43:47.698Z,90.23
2017-01-15T04:44:15.867Z,90.23
2017-01-15T04:44:44.047Z,90.23
2017-01-15T04:45:12.239Z,90.53
2017-01-15T04:45:40.381Z,90.33
2017-01-15T04:46:08.532Z,90.33
2017-01-15T04:46:36.704Z,90.05
2017-01-15T04:47:04.880Z,90.23
2017-01-15T04:47:33.048Z,90.33
2017-01-15T04:48:01.275Z,90.72
2017-01-15T04:48:29.438Z,90.72
2017-01-15T04:48:59.189Z,90.53
2017-01-15T04:49:27.382Z,90.81
2017-01-15T04:49:55.549Z,90.72
2017-01-15T04:50:23.749Z,90.53
2017-01-15T04:50:51.910Z,90.91
2017-01-15T04:51:20.061Z,90.72
2017-01-15T04:51:48.228Z,90.53
2017-01-15T04:52:16.701Z,90.53
2017-01-15T04:52:44.875Z,90.43
2017-01-15T04:53:13.030Z,90.33
2017-01-15T04:53:41.313Z,90.72
2017-01-15T04:54:09.580Z,90.72
2017-01-15T04:54:37.792Z,90.72
2017-01-15T04:55:05.941Z,90.62
2017-01-15T04:55:34.128Z,90.62
2017-01-15T04:56:02.277Z,90.43
2017-01-15T04:56:30.461Z,90.81
2017-01-15T04:56:58.669Z,90.53
2017-01-15T04:57:26.826Z,90.72
2017-01-15T04:57:55.144Z,90.33
2017-01-15T04:58:23.402Z,90.53
2017-01-15T04:58:51.589Z,90.81
2017-01-15T04:59:19.809Z,90.72
2017-01-15T04:59:47.979Z,90.23
2017-01-15T05:00:16.157Z,90.62
2017-01-15T05:00:44.335Z,90.14
2017-01-15T05:01:12.514Z,90.72
2017-01-15T05:01:40.674Z,90.72
2017-01-15T05:02:08.953Z,90.33
2017-01-15T05:02:37.130Z,90.33
2017-01-15T05:03:05.294Z,90.05
2017-01-15T05:03:33.494Z,90.23
2017-01-15T05:04:01.805Z,90.33
2017-01-15T05:04:29.986Z,89.95
2017-01-15T05:04:58.163Z,89.95
2017-01-15T05:05:26.357Z,89.95
2017-01-15T05:05:54.513Z,89.85
2017-01-15T05:06:22.702Z,90.43
2017-01-15T05:06:50.868Z,89.47
2017-01-15T05:07:19.044Z,89.65
2017-01-15T05:07:47.220Z,89.65
2017-01-15T05:08:15.407Z,89.07
2017-01-15T05:08:43.569Z,88.98
2017-01-15T05:09:11.723Z,88.98
2017-01-15T05:09:39.890Z,89.75
2017-01-15T05:10:08.043Z,89.56
2017-01-15T05:10:36.224Z,89.27
2017-01-15T05:11:04.427Z,88.98
2017-01-15T05:11:32.618Z,89.56
2017-01-15T05:12:00.786Z,89.75
2017-01-15T05:12:28.946Z,89.56
2017-01-15T05:12:57.124Z,89.37
2017-01-15T05:13:25.378Z,89.65
2017-01-15T05:13:53.550Z,90.05
2017-01-15T05:14:21.710Z,89.85
2017-01-15T05:14:49.896Z,90.53
2017-01-15T05:15:18.091Z,90.05
2017-01-15T05:15:46.258Z,90.05
2017-01-15T05:16:14.455Z,89.85
2017-01-15T05:16:42.623Z,90.33
2017-01-15T05:17:10.812Z,90.14
2017-01-15T05:17:38.992Z,90.33
2017-01-15T05:18:07.150Z,90.33
2017-01-15T05:18:35.319Z,90.43
2017-01-15T05:19:03.491Z,90.33
2017-01-15T05:19:31.683Z,90.14
2017-01-15T05:19:59.867Z,90.23
2017-01-15T05:20:28.011Z,90.33
2017-01-15T05:20:56.177Z,90.43
2017-01-15T05:21:24.331Z,90.14
2017-01-15T05:21:52.499Z,90.23
2017-01-15T05:22:20.661Z,90.33
2017-01-15T05:22:48.825Z,90.23
2017-01-15T05:23:16.994Z,90.33
2017-01-15T05:23:45.179Z,90.33
2017-01-15T05:24:13.366Z,89.85
2017-01-15T05:24:41.523Z,90.23
2017-01-15T05:25:09.700Z,90.05
2017-01-15T05:25:37.876Z,90.23
2017-01-15T05:26:06.040Z,90.23
2017-01-15T05:26:34.223Z,90.72
2017-01-15T05:27:02.377Z,90.91
2017-01-15T05:27:30.535Z,90.53
2017-01-15T05:27:58.792Z,90.43
2017-01-15T05:28:26.961Z,90.72
2017-01-15T05:28:55.120Z,90.62
2017-01-15T05:29:23.303Z,90.62
2017-01-15T05:29:51.485Z,90.72
2017-01-15T05:30:19.682Z,90.62
2017-01-15T05:30:47.862Z,90.43
2017-01-15T05:31:16.128Z,90.53
2017-01-15T05:31:44.299Z,90.81
2017-01-15T05:32:12.562Z,90.81
2017-01-15T05:32:40.739Z,90.38
2017-01-15T05:33:08.906Z,90.77
2017-01-15T05:33:37.094Z,90.87
2017-01-15T05:34:05.235Z,91.16
2017-01-15T05:34:33.393Z,90.87
2017-01-15T05:35:01.557Z,91.25
2017-01-15T05:35:29.754Z,91.39
2017-01-15T05:35:57.934Z,91.16
2017-01-15T05:36:26.101Z,91.35
2017-01-15T05:36:54.369Z,91.44
2017-01-15T05:37:22.629Z,90.96
2017-01-15T05:37:50.783Z,91.25
2017-01-15T05:38:18.955Z,91.39
2017-01-15T05:38:47.115Z,91.35
2017-01-15T05:39:15.289Z,91.3
2017-01-15T05:39:43.433Z,90.91
2017-01-15T05:40:11.609Z,90.72
2017-01-15T05:40:39.776Z,90.91
2017-01-15T05:41:07.954Z,90.91
2017-01-15T05:41:36.143Z,91.49
2017-01-15T05:42:04.319Z,91.59
2017-01-15T05:42:32.575Z,91.11
2017-01-15T05:43:00.825Z,90.53
2017-01-15T05:43:29.097Z,90.43
2017-01-15T05:43:57.258Z,90.77
2017-01-15T05:44:25.436Z,90.91
2017-01-15T05:44:53.615Z,90.81
2017-01-15T05:45:21.898Z,90.72
2017-01-15T05:45:50.091Z,90.81
2017-01-15T05:46:18.235Z,91.59
2017-01-15T05:46:46.415Z,91.11
2017-01-15T05:47:14.563Z,91.39
2017-01-15T05:47:42.748Z,91.39
2017-01-15T05:48:10.923Z,91.39
2017-01-15T05:48:39.101Z,91.35
2017-01-15T05:49:07.296Z,91.35
2017-01-15T05:49:35.513Z,91.35
2017-01-15T05:50:03.682Z,91.35
2017-01-15T05:50:31.874Z,91.16
2017-01-15T05:51:00.142Z,91.06
2017-01-15T05:51:28.315Z,91.54
2017-01-15T05:51:56.502Z,91.44
2017-01-15T05:52:24.702Z,91.64
2017-01-15T05:52:52.870Z,91.54
2017-01-15T05:53:21.029Z,91.54
2017-01-15T05:53:49.199Z,91.74
2017-01-15T05:54:17.375Z,91.35
2017-01-15T05:54:45.640Z,92.02
2017-01-15T05:55:13.815Z,91.64
2017-01-15T05:55:41.977Z,91.83
2017-01-15T05:56:10.132Z,92.32
2017-01-15T05:56:38.310Z,92.12
2017-01-15T05:57:06.477Z,92.02
2017-01-15T05:57:34.637Z,92.12
2017-01-15T05:58:02.800Z,92.32
2017-01-15T05:58:30.996Z,92.32
2017-01-15T05:58:59.427Z,92.12
2017-01-15T05:59:27.715Z,92.5
2017-01-15T05:59:55.873Z,92.5
2017-01-15T06:00:24.034Z,92.22
2017-01-15T06:00:52.209Z,92.7
2017-01-15T06:01:20.456Z,92.6
2017-01-15T06:01:48.644Z,92.41
2017-01-15T06:02:16.919Z,92.6
2017-01-15T06:02:45.081Z,92.5
2017-01-15T06:03:13.247Z,92.7
2017-01-15T06:03:41.391Z,92.7
2017-01-15T06:04:09.579Z,92.6